createdAt,value
2022-11-16T00:00:04.321Z,94.54
2022-11-16T00:02:53.995Z,94.53
2022-11-16T00:05:27.984Z,94.66
2022-11-16T00:07:58.020Z,94.33
2022-11-16T00:10:26.297Z,93.95
2022-11-16T00:12:54.532Z,94.32
2022-11-16T00:15:23.249Z,94.42
2022-11-16T00:17:51.496Z,94.16
2022-11-16T00:20:19.799Z,94.71
2022-11-16T00:22:47.980Z,94.85
2022-11-16T00:25:16.284Z,94.54
2022-11-16T00:27:44.844Z,94.95
2022-11-16T00:30:13.613Z,95.09
2022-11-16T00:32:41.822Z,94.66
2022-11-16T00:35:10.385Z,95.56
2022-11-16T00:37:38.660Z,95.54
2022-11-16T00:40:08.351Z,95.00
2022-11-16T00:42:36.949Z,94.01
2022-11-16T00:45:05.666Z,94.19
2022-11-16T00:47:33.952Z,94.30
2022-11-16T00:50:02.221Z,94.32
2022-11-16T00:52:30.810Z,94.26
2022-11-16T00:54:59.637Z,94.26
2022-11-16T00:57:28.007Z,94.70
2022-11-16T00:59:56.236Z,94.97
2022-11-16T01:02:24.855Z,95.21
2022-11-16T01:04:53.166Z,94.87
2022-11-16T01:07:21.495Z,95.03
2022-11-16T01:09:49.760Z,95.05
2022-11-16T01:12:18.546Z,94.98
2022-11-16T01:14:48.350Z,94.65
2022-11-16T01:17:16.580Z,94.46
2022-11-16T01:19:44.844Z,94.43
2022-11-16T01:22:13.090Z,94.52
2022-11-16T01:24:41.407Z,94.62
2022-11-16T01:27:09.643Z,94.43
2022-11-16T01:29:40.120Z,93.97
2022-11-16T01:32:08.890Z,93.85
2022-11-16T01:34:37.267Z,93.69
2022-11-16T01:37:12.286Z,93.93
2022-11-16T01:39:42.734Z,93.88
2022-11-16T01:42:20.008Z,93.61
2022-11-16T01:44:49.592Z,94.11
2022-11-16T01:47:19.612Z,93.61
2022-11-16T01:49:55.295Z,93.70
2022-11-16T01:52:33.828Z,93.85
2022-11-16T01:55:04.106Z,93.54
2022-11-16T01:57:45.944Z,93.48
2022-11-16T02:00:15.407Z,93.42
2022-11-16T02:02:48.753Z,93.50
2022-11-16T02:05:56.104Z,93.63
2022-11-16T02:09:17.183Z,93.33
2022-11-16T02:12:06.595Z,92.30
2022-11-16T02:14:49.990Z,91.92
2022-11-16T02:18:23.279Z,91.72
2022-11-16T02:21:07.478Z,91.86
2022-11-16T02:24:03.000Z,92.00
2022-11-16T02:27:14.073Z,92.50
2022-11-16T02:29:52.177Z,92.33
2022-11-16T02:32:50.147Z,91.95
2022-11-16T02:35:40.723Z,91.79
2022-11-16T02:38:19.654Z,91.98
2022-11-16T02:40:53.928Z,92.23
2022-11-16T02:43:37.850Z,92.61
2022-11-16T02:46:13.193Z,92.66
2022-11-16T02:48:47.926Z,92.62
2022-11-16T02:51:17.813Z,93.25
2022-11-16T02:54:13.169Z,92.95
2022-11-16T02:56:52.909Z,92.83
2022-11-16T02:59:30.455Z,92.99
2022-11-16T03:02:35.695Z,93.06
2022-11-16T03:05:15.069Z,93.22
2022-11-16T03:08:04.343Z,92.68
2022-11-16T03:10:55.566Z,93.21
2022-11-16T03:13:28.566Z,93.05
2022-11-16T03:16:00.364Z,92.37
2022-11-16T03:18:32.216Z,92.41
2022-11-16T03:21:12.818Z,92.45
2022-11-16T03:23:41.277Z,92.21
2022-11-16T03:26:12.801Z,92.72
2022-11-16T03:28:50.461Z,92.98
2022-11-16T03:31:28.036Z,93.26
2022-11-16T03:34:01.175Z,92.44
2022-11-16T03:36:40.899Z,92.63
2022-11-16T03:39:15.835Z,93.23
2022-11-16T03:41:47.959Z,93.41
2022-11-16T03:44:18.984Z,93.86
2022-11-16T03:46:47.955Z,93.06
2022-11-16T03:49:21.513Z,92.51
2022-11-16T03:51:51.302Z,91.86
2022-11-16T03:54:20.228Z,91.64
2022-11-16T03:56:48.454Z,91.69
2022-11-16T03:59:16.826Z,91.40
2022-11-16T04:01:46.265Z,91.29
2022-11-16T04:04:34.891Z,91.42
2022-11-16T04:07:22.950Z,91.45
2022-11-16T04:10:09.886Z,90.93
2022-11-16T04:13:03.288Z,90.70
2022-11-16T04:15:50.055Z,90.55
2022-11-16T04:18:37.710Z,90.68
2022-11-16T04:21:26.912Z,91.16
2022-11-16T04:24:13.215Z,90.80
2022-11-16T04:27:04.271Z,91.18
2022-11-16T04:29:33.886Z,91.62
2022-11-16T04:33:01.473Z,91.79
2022-11-16T04:35:47.953Z,93.02
2022-11-16T04:38:16.314Z,93.82
2022-11-16T04:40:44.605Z,93.97
2022-11-16T04:43:13.893Z,92.78
2022-11-16T04:46:02.181Z,92.51
2022-11-16T04:48:36.700Z,92.44
2022-11-16T04:51:05.722Z,92.23
2022-11-16T04:53:34.384Z,92.05
2022-11-16T04:56:08.479Z,92.13
2022-11-16T04:58:36.980Z,91.83
2022-11-16T05:01:05.489Z,91.76
2022-11-16T05:03:34.623Z,91.88
2022-11-16T05:06:03.025Z,91.94
2022-11-16T05:08:31.802Z,91.83
2022-11-16T05:11:00.785Z,91.81
2022-11-16T05:13:30.010Z,92.21
2022-11-16T05:15:58.651Z,91.85
2022-11-16T05:18:27.227Z,91.62
2022-11-16T05:21:01.410Z,92.12
2022-11-16T05:23:50.915Z,92.32
2022-11-16T05:26:21.305Z,93.33
2022-11-16T05:28:49.955Z,92.92
2022-11-16T05:31:18.274Z,93.08
2022-11-16T05:33:46.566Z,93.02
2022-11-16T05:36:15.187Z,92.07
2022-11-16T05:38:43.643Z,92.17
2022-11-16T05:41:12.542Z,92.87
2022-11-16T05:43:41.193Z,92.80
2022-11-16T05:46:22.435Z,92.52
2022-11-16T05:48:51.446Z,92.51
2022-11-16T05:51:19.666Z,91.96
2022-11-16T05:53:49.575Z,91.65
2022-11-16T05:56:20.729Z,91.75
2022-11-16T05:58:49.520Z,91.26
2022-11-16T06:01:18.099Z,91.33
2022-11-16T06:03:46.475Z,90.98
2022-11-16T06:06:14.810Z,90.72
2022-11-16T06:08:43.448Z,90.18
2022-11-16T06:11:14.813Z,90.01
2022-11-16T06:13:44.520Z,89.52
2022-11-16T06:16:13.167Z,89.90
2022-11-16T06:18:45.052Z,90.22
2022-11-16T06:21:16.937Z,90.08
2022-11-16T06:23:45.917Z,90.30
2022-11-16T06:26:14.324Z,91.00
2022-11-16T06:28:42.810Z,90.64
2022-11-16T06:31:11.123Z,90.48
2022-11-16T06:33:42.281Z,90.92
2022-11-16T06:36:17.880Z,91.17
2022-11-16T06:38:46.541Z,90.57
2022-11-16T06:41:14.911Z,91.64
2022-11-16T06:43:46.035Z,91.69
2022-11-16T06:46:15.372Z,91.51
2022-11-16T06:48:43.832Z,92.19
2022-11-16T06:51:13.966Z,91.63
2022-11-16T06:53:42.805Z,91.91
2022-11-16T06:56:13.544Z,91.78
2022-11-16T06:58:44.776Z,91.37
2022-11-16T07:01:13.987Z,90.60
2022-11-16T07:03:44.165Z,90.88
2022-11-16T07:06:14.241Z,91.07
2022-11-16T07:08:44.329Z,90.74
2022-11-16T07:11:12.837Z,89.47
2022-11-16T07:13:41.137Z,88.97
2022-11-16T07:16:11.842Z,88.44
2022-11-16T07:18:44.236Z,88.70
2022-11-16T07:21:16.252Z,89.28
2022-11-16T07:23:45.143Z,88.85
2022-11-16T07:26:17.372Z,89.04
2022-11-16T07:28:49.932Z,89.28
2022-11-16T07:31:20.946Z,88.31
2022-11-16T07:33:54.239Z,87.31
2022-11-16T07:37:12.189Z,87.01
2022-11-16T07:39:41.532Z,87.10
2022-11-16T07:42:11.881Z,87.77
2022-11-16T07:45:08.269Z,88.69
2022-11-16T07:47:40.440Z,87.81
2022-11-16T07:50:11.125Z,88.19
2022-11-16T07:52:39.409Z,87.89
2022-11-16T07:55:11.392Z,88.11
2022-11-16T07:57:39.847Z,87.60
2022-11-16T08:00:09.940Z,87.14
2022-11-16T08:02:47.814Z,86.97
2022-11-16T08:05:19.450Z,88.16
2022-11-16T08:07:49.661Z,88.07
2022-11-16T08:10:19.126Z,87.91
2022-11-16T08:12:47.450Z,88.19
2022-11-16T08:15:15.969Z,88.83
2022-11-16T08:17:44.425Z,88.42
2022-11-16T08:20:13.842Z,88.12
2022-11-16T08:22:43.033Z,88.44
2022-11-16T08:25:12.336Z,88.29
2022-11-16T08:27:40.801Z,88.10
2022-11-16T08:30:10.231Z,86.74
2022-11-16T08:32:39.432Z,86.36
2022-11-16T08:35:08.449Z,86.40
2022-11-16T08:37:36.838Z,85.58
2022-11-16T08:40:05.862Z,86.44
2022-11-16T08:42:42.262Z,85.84
2022-11-16T08:45:11.943Z,83.97
2022-11-16T08:47:40.385Z,84.04
2022-11-16T08:50:09.733Z,84.74
2022-11-16T08:52:38.658Z,85.09
2022-11-16T08:55:07.893Z,84.62
2022-11-16T08:57:36.707Z,84.14
2022-11-16T09:00:09.287Z,83.79
2022-11-16T09:02:38.756Z,83.26
2022-11-16T09:05:08.267Z,82.27
2022-11-16T09:07:36.567Z,82.69
2022-11-16T09:10:06.111Z,82.37
2022-11-16T09:12:35.344Z,82.42
2022-11-16T09:15:06.240Z,81.58
2022-11-16T09:17:34.649Z,81.89
2022-11-16T09:20:03.943Z,82.05
2022-11-16T09:22:32.196Z,82.39
2022-11-16T09:25:00.538Z,82.13
2022-11-16T09:27:28.819Z,82.22
2022-11-16T09:29:57.062Z,80.49
2022-11-16T09:32:25.333Z,80.05
2022-11-16T09:34:53.911Z,81.99
2022-11-16T09:37:22.317Z,83.41
2022-11-16T09:39:50.850Z,83.02
2022-11-16T09:43:18.262Z,82.16
2022-11-16T09:46:26.318Z,81.38
2022-11-16T09:48:57.555Z,78.66
2022-11-16T09:51:29.839Z,80.47
2022-11-16T09:54:05.545Z,82.17
2022-11-16T09:56:40.222Z,81.63
2022-11-16T09:59:11.069Z,80.46
2022-11-16T10:02:02.082Z,79.53
2022-11-16T10:04:38.453Z,80.01
2022-11-16T10:07:16.056Z,80.77
2022-11-16T10:09:45.380Z,79.73
2022-11-16T10:12:43.782Z,79.46
2022-11-16T10:15:36.800Z,79.00
2022-11-16T10:18:15.558Z,80.46
2022-11-16T10:21:18.884Z,79.90
2022-11-16T10:24:00.733Z,79.43
2022-11-16T10:26:47.033Z,78.67
2022-11-16T10:30:09.413Z,78.97
2022-11-16T10:33:10.885Z,78.75
2022-11-16T10:35:53.308Z,80.42
2022-11-16T10:38:27.660Z,78.97
2022-11-16T10:41:03.575Z,78.78
2022-11-16T10:43:33.576Z,80.40
2022-11-16T10:46:36.484Z,81.19
2022-11-16T10:49:16.532Z,80.81
2022-11-16T10:51:44.995Z,81.13
2022-11-16T10:54:18.194Z,81.18
2022-11-16T10:57:02.600Z,80.38
2022-11-16T10:59:49.241Z,80.77
2022-11-16T11:02:28.406Z,79.25
2022-11-16T11:05:21.978Z,80.33
2022-11-16T11:08:01.685Z,81.31
2022-11-16T11:10:38.895Z,80.82
2022-11-16T11:13:10.170Z,80.55
2022-11-16T11:15:40.620Z,79.97
2022-11-16T11:18:19.176Z,79.53
2022-11-16T11:21:04.708Z,79.71
2022-11-16T11:23:46.920Z,81.12
2022-11-16T11:26:36.494Z,81.12
2022-11-16T11:29:36.167Z,80.83
2022-11-16T11:32:08.534Z,81.27
2022-11-16T11:34:44.906Z,80.77
2022-11-16T11:37:19.179Z,80.22
2022-11-16T11:39:47.618Z,79.91
2022-11-16T11:42:15.833Z,80.08
2022-11-16T11:44:50.303Z,80.14
2022-11-16T11:51:06.217Z,80.57
2022-11-16T11:53:56.422Z,81.35
2022-11-16T11:56:27.805Z,79.86
2022-11-16T11:58:56.951Z,79.99
2022-11-16T12:01:44.620Z,80.42
2022-11-16T12:04:24.903Z,80.47
2022-11-16T12:07:14.589Z,81.32
2022-11-16T12:09:48.705Z,81.17
2022-11-16T12:12:53.436Z,80.40
2022-11-16T12:16:08.938Z,80.06
2022-11-16T12:19:04.497Z,80.05
2022-11-16T12:22:00.622Z,79.12
2022-11-16T12:24:38.841Z,78.45
2022-11-16T12:27:30.173Z,78.70
2022-11-16T12:29:58.554Z,78.40
2022-11-16T12:33:02.107Z,79.73
2022-11-16T12:35:42.592Z,80.02
2022-11-16T12:38:19.463Z,78.90
2022-11-16T12:41:17.545Z,79.78
2022-11-16T12:43:58.010Z,80.00
2022-11-16T12:47:07.684Z,79.89
2022-11-16T12:50:35.727Z,79.19
2022-11-16T12:53:35.129Z,78.98
2022-11-16T12:56:15.719Z,78.43
2022-11-16T12:59:31.730Z,76.80
2022-11-16T13:02:27.988Z,76.64
2022-11-16T13:05:35.737Z,76.31
2022-11-16T13:08:34.319Z,74.17
2022-11-16T13:11:15.920Z,73.11
2022-11-16T13:13:51.651Z,71.35
2022-11-16T13:16:24.489Z,69.96
2022-11-16T13:18:54.845Z,69.11
2022-11-16T13:21:57.296Z,67.98
2022-11-16T13:25:14.252Z,66.25
2022-11-16T13:28:33.482Z,65.64
2022-11-16T13:31:53.970Z,63.66
2022-11-16T13:34:33.030Z,65.47
2022-11-16T13:37:02.296Z,63.37
2022-11-16T13:39:58.384Z,65.23
2022-11-16T13:42:27.414Z,65.73
2022-11-16T13:45:52.134Z,65.95
2022-11-16T13:48:38.551Z,65.37
2022-11-16T13:51:18.646Z,65.85
2022-11-16T13:54:43.224Z,66.75
2022-11-16T13:56:50.212Z,68.26
2022-11-16T13:59:26.178Z,69.22
2022-11-16T14:02:01.168Z,70.01
2022-11-16T14:04:59.480Z,71.79
2022-11-16T14:07:31.039Z,73.33
2022-11-16T14:10:00.948Z,74.03
2022-11-16T14:12:54.045Z,75.34
2022-11-16T14:15:32.980Z,75.86
2022-11-16T14:18:21.747Z,76.57
2022-11-16T14:20:59.363Z,76.62
2022-11-16T14:23:58.532Z,78.34
2022-11-16T14:26:45.522Z,79.76
2022-11-16T14:29:32.600Z,79.16
2022-11-16T14:32:04.810Z,79.98
2022-11-16T14:34:41.803Z,82.89
2022-11-16T14:37:22.309Z,84.62
2022-11-16T14:39:53.925Z,85.20
2022-11-16T14:42:34.533Z,85.33
2022-11-16T14:45:24.252Z,85.75
2022-11-16T14:48:15.937Z,87.35
2022-11-16T14:50:47.980Z,85.21
2022-11-16T14:53:19.747Z,84.49
2022-11-16T14:55:48.493Z,87.42
2022-11-16T14:58:20.799Z,86.43
2022-11-16T15:01:14.812Z,87.77
2022-11-16T15:03:58.978Z,89.08
2022-11-16T15:06:28.483Z,90.50
2022-11-16T15:09:03.807Z,90.47
2022-11-16T15:11:56.581Z,89.73
2022-11-16T15:14:31.116Z,91.29
2022-11-16T15:17:00.479Z,92.77
2022-11-16T15:19:30.858Z,92.90
2022-11-16T15:22:01.606Z,93.31
2022-11-16T15:24:35.246Z,93.90
2022-11-16T15:27:26.182Z,93.83
2022-11-16T15:29:54.849Z,93.83
2022-11-16T15:32:23.549Z,90.33
2022-11-16T15:34:54.593Z,89.34
2022-11-16T15:37:31.022Z,88.80
2022-11-16T15:40:00.806Z,88.69
2022-11-16T15:42:29.858Z,88.97
2022-11-16T15:45:01.996Z,89.45
2022-11-16T15:47:30.819Z,90.33
2022-11-16T15:49:59.526Z,90.09
2022-11-16T15:52:55.351Z,89.15
2022-11-16T15:55:40.816Z,90.07
2022-11-16T15:58:27.627Z,92.05
2022-11-16T16:00:58.996Z,91.38
2022-11-16T16:03:34.877Z,91.42
2022-11-16T16:06:05.149Z,90.74
2022-11-16T16:08:39.412Z,92.47
2022-11-16T16:11:16.735Z,93.73
2022-11-16T16:13:58.076Z,93.58
2022-11-16T16:16:42.630Z,94.68
2022-11-16T16:19:43.240Z,95.86
2022-11-16T16:22:33.780Z,96.47
2022-11-16T16:25:04.800Z,96.50
2022-11-16T16:27:40.731Z,96.61
2022-11-16T16:30:14.683Z,96.45
2022-11-16T16:32:51.850Z,94.22
2022-11-16T16:35:23.552Z,91.38
2022-11-16T16:38:01.054Z,92.01
2022-11-16T16:40:29.854Z,91.85
2022-11-16T16:42:58.515Z,92.03
2022-11-16T16:45:43.492Z,92.03
2022-11-16T16:48:12.774Z,92.37
2022-11-16T16:50:41.368Z,92.93
2022-11-16T16:53:13.984Z,94.01
2022-11-16T16:55:43.674Z,95.79
2022-11-16T16:58:13.468Z,96.20
2022-11-16T17:00:42.499Z,94.99
2022-11-16T17:03:11.263Z,94.94
2022-11-16T17:05:39.738Z,95.55
2022-11-16T17:08:08.170Z,96.30
2022-11-16T17:10:39.034Z,95.28
2022-11-16T17:13:07.429Z,94.65
2022-11-16T17:15:35.826Z,94.02
2022-11-16T17:18:04.316Z,95.45
2022-11-16T17:20:33.229Z,95.47
2022-11-16T17:23:01.581Z,94.44
2022-11-16T17:25:33.024Z,94.56
2022-11-16T17:28:01.404Z,95.93
2022-11-16T17:30:30.193Z,96.51
2022-11-16T17:32:58.568Z,97.83
2022-11-16T17:35:27.092Z,98.16
2022-11-16T17:37:55.446Z,98.06
2022-11-16T17:40:23.836Z,97.31
2022-11-16T17:42:52.213Z,97.53
2022-11-16T17:45:20.609Z,97.38
2022-11-16T17:47:49.057Z,96.07
2022-11-16T17:50:17.624Z,95.68
2022-11-16T17:52:46.035Z,95.12
2022-11-16T17:55:14.472Z,95.03
2022-11-16T17:57:42.840Z,95.40
2022-11-16T18:00:12.285Z,94.00
2022-11-16T18:02:40.656Z,94.18
2022-11-16T18:05:09.952Z,94.43
2022-11-16T18:07:40.317Z,93.98
2022-11-16T18:10:09.036Z,94.84
2022-11-16T18:12:38.616Z,95.51
2022-11-16T18:15:27.354Z,93.91
2022-11-16T18:17:57.159Z,93.38
2022-11-16T18:20:27.702Z,92.96
2022-11-16T18:22:57.630Z,93.39
2022-11-16T18:25:26.004Z,95.21
2022-11-16T18:27:55.686Z,95.18
2022-11-16T18:30:24.305Z,95.50
2022-11-16T18:32:52.517Z,95.75
2022-11-16T18:35:20.739Z,94.91
2022-11-16T18:37:49.064Z,95.39
2022-11-16T18:40:18.180Z,95.32
2022-11-16T18:42:46.504Z,93.99
2022-11-16T18:45:14.745Z,93.70
2022-11-16T18:47:42.970Z,93.74
2022-11-16T18:50:19.057Z,95.41
2022-11-16T18:52:49.641Z,95.11
2022-11-16T18:55:17.985Z,93.99
2022-11-16T18:57:46.210Z,93.42
2022-11-16T19:00:15.550Z,93.47
2022-11-16T19:02:43.775Z,93.24
2022-11-16T19:05:11.979Z,93.21
2022-11-16T19:07:40.200Z,93.47
2022-11-16T19:10:09.459Z,93.10
2022-11-16T19:12:37.755Z,92.80
2022-11-16T19:15:06.899Z,93.22
2022-11-16T19:17:43.660Z,93.76
2022-11-16T19:20:23.672Z,93.61
2022-11-16T19:22:52.088Z,93.23
2022-11-16T19:25:20.569Z,93.28
2022-11-16T19:27:48.978Z,92.78
2022-11-16T19:30:18.307Z,92.63
2022-11-16T19:32:46.569Z,92.28
2022-11-16T19:35:16.373Z,92.49
2022-11-16T19:37:44.583Z,92.92
2022-11-16T19:40:13.252Z,93.18
2022-11-16T19:42:42.949Z,93.04
2022-11-16T19:45:12.050Z,94.95
2022-11-16T19:47:40.339Z,95.11
2022-11-16T19:50:10.870Z,94.99
2022-11-16T19:52:39.227Z,94.53
2022-11-16T19:55:07.962Z,94.24
2022-11-16T19:57:36.364Z,93.61
2022-11-16T20:00:05.310Z,93.34
2022-11-16T20:02:33.501Z,94.15
2022-11-16T20:05:01.757Z,94.04
2022-11-16T20:07:30.271Z,93.63
2022-11-16T20:09:58.545Z,94.06
2022-11-16T20:12:26.970Z,94.07
2022-11-16T20:14:55.326Z,93.82
2022-11-16T20:17:23.678Z,93.56
2022-11-16T20:19:51.928Z,95.11
2022-11-16T20:22:20.175Z,96.06
2022-11-16T20:24:48.507Z,95.30
2022-11-16T20:27:16.738Z,95.09
2022-11-16T20:29:44.937Z,94.85
2022-11-16T20:32:13.149Z,94.34
2022-11-16T20:34:41.374Z,94.23
2022-11-16T20:37:09.595Z,94.96
2022-11-16T20:39:37.838Z,95.32
2022-11-16T20:42:06.119Z,95.14
2022-11-16T20:44:34.335Z,94.57
2022-11-16T20:47:02.535Z,94.07
2022-11-16T20:49:30.807Z,93.86
2022-11-16T20:51:59.075Z,93.58
2022-11-16T20:54:27.365Z,94.16
2022-11-16T20:56:55.648Z,93.84
2022-11-16T20:59:23.866Z,94.77
2022-11-16T21:01:55.171Z,94.70
2022-11-16T21:04:23.513Z,95.46
2022-11-16T21:06:51.995Z,95.54
2022-11-16T21:09:22.988Z,95.56
2022-11-16T21:12:10.124Z,95.35
2022-11-16T21:14:38.471Z,95.83
2022-11-16T21:17:06.799Z,95.09
2022-11-16T21:19:35.057Z,94.55
2022-11-16T21:22:03.306Z,94.27
2022-11-16T21:24:32.362Z,94.45
2022-11-16T21:27:00.668Z,94.73
2022-11-16T21:29:28.984Z,94.89
2022-11-16T21:31:57.342Z,94.58
2022-11-16T21:34:28.013Z,94.95
2022-11-16T21:36:56.363Z,94.41
2022-11-16T21:39:25.338Z,93.82
2022-11-16T21:41:53.753Z,94.03
2022-11-16T21:44:21.970Z,94.26
2022-11-16T21:46:50.215Z,94.19
2022-11-16T21:49:18.509Z,94.58
2022-11-16T21:51:46.713Z,94.39
2022-11-16T21:54:15.143Z,94.75
2022-11-16T21:56:43.370Z,95.10
2022-11-16T21:59:11.582Z,94.72
2022-11-16T22:01:59.464Z,95.29
2022-11-16T22:04:46.518Z,94.60
2022-11-16T22:07:33.932Z,94.19
2022-11-16T22:10:11.614Z,93.53
2022-11-16T22:12:39.854Z,93.87
2022-11-16T22:15:09.247Z,94.11
2022-11-16T22:17:43.600Z,94.38
2022-11-16T22:20:12.050Z,94.78
2022-11-16T22:22:40.248Z,94.91
2022-11-16T22:25:08.980Z,95.07
2022-11-16T22:27:58.439Z,94.88
2022-11-16T22:30:25.613Z,94.59
2022-11-16T22:32:53.837Z,94.35
2022-11-16T22:35:22.144Z,95.04
2022-11-16T22:37:50.411Z,95.21
2022-11-16T22:40:18.601Z,95.07
2022-11-16T22:42:46.799Z,94.55
2022-11-16T22:45:14.997Z,94.46
2022-11-16T22:47:43.264Z,94.58
2022-11-16T22:50:11.915Z,94.59
2022-11-16T22:52:40.167Z,94.06
2022-11-16T22:55:09.007Z,94.34
2022-11-16T22:57:37.251Z,94.66
2022-11-16T23:00:06.855Z,95.06
2022-11-16T23:02:35.125Z,95.25
2022-11-16T23:05:03.416Z,95.44
2022-11-16T23:07:31.712Z,96.64
2022-11-16T23:10:00.016Z,96.71
2022-11-16T23:12:46.647Z,97.50
2022-11-16T23:15:33.306Z,98.40
2022-11-16T23:18:01.565Z,97.96
2022-11-16T23:20:48.008Z,96.99
2022-11-16T23:23:36.780Z,96.88
2022-11-16T23:26:35.105Z,97.28
2022-11-16T23:29:08.007Z,97.41
2022-11-16T23:31:37.926Z,97.02
2022-11-16T23:34:06.163Z,97.38
2022-11-16T23:36:34.408Z,97.52
2022-11-16T23:39:02.713Z,97.96
2022-11-16T23:41:49.391Z,97.82
2022-11-16T23:44:17.682Z,97.99
2022-11-16T23:46:45.901Z,98.15
2022-11-16T23:49:14.057Z,98.00
2022-11-16T23:51:42.320Z,97.76
2022-11-16T23:54:10.606Z,97.89
2022-11-16T23:56:38.795Z,97.76
2022-11-16T23:59:07.192Z,97.33
